sensor_id;sensor_type;location;lat;lon;timestamp;pressure;altitude;pressure_sealevel;temperature;humidity
24013;BME280;12220;50.194;18.948;2022-08-07T00:00:10;102651.35;;;18.18;74.14
24013;BME280;12220;50.194;18.948;2022-08-07T00:02:19;102654.34;;;18.15;74.18
24013;BME280;12220;50.194;18.948;2022-08-07T00:04:20;102652.56;;;18.14;74.20
24013;BME280;12220;50.194;18.948;2022-08-07T00:06:23;102657.35;;;18.11;74.18
24013;BME280;12220;50.194;18.948;2022-08-07T00:08:25;102662.98;;;18.10;74.10
24013;BME280;12220;50.194;18.948;2022-08-07T00:10:28;102653.02;;;18.07;74.03
24013;BME280;12220;50.194;18.948;2022-08-07T00:12:29;102656.01;;;18.04;74.00
24013;BME280;12220;50.194;18.948;2022-08-07T00:14:38;102656.20;;;18.01;73.95
24013;BME280;12220;50.194;18.948;2022-08-07T00:16:39;102668.31;;;18.00;73.90
24013;BME280;12220;50.194;18.948;2022-08-07T00:18:41;102667.63;;;17.97;73.65
24013;BME280;12220;50.194;18.948;2022-08-07T00:20:42;102664.41;;;17.90;73.53
24013;BME280;12220;50.194;18.948;2022-08-07T00:22:53;102664.02;;;17.82;73.60
24013;BME280;12220;50.194;18.948;2022-08-07T00:24:54;102662.57;;;17.76;73.69
24013;BME280;12220;50.194;18.948;2022-08-07T00:26:56;102662.91;;;17.71;73.78
24013;BME280;12220;50.194;18.948;2022-08-07T00:28:57;102695.38;;;17.69;73.79
24013;BME280;12220;50.194;18.948;2022-08-07T00:31:09;102664.10;;;17.67;73.79
24013;BME280;12220;50.194;18.948;2022-08-07T00:33:11;102658.79;;;17.64;73.77
24013;BME280;12220;50.194;18.948;2022-08-07T00:35:12;102664.54;;;17.61;73.80
24013;BME280;12220;50.194;18.948;2022-08-07T00:37:16;102662.87;;;17.58;73.76
24013;BME280;12220;50.194;18.948;2022-08-07T00:39:26;102662.98;;;17.57;73.72
24013;BME280;12220;50.194;18.948;2022-08-07T00:41:31;102673.28;;;17.55;73.71
24013;BME280;12220;50.194;18.948;2022-08-07T00:43:33;102669.71;;;17.53;73.67
24013;BME280;12220;50.194;18.948;2022-08-07T00:45:35;102667.95;;;17.52;73.60
24013;BME280;12220;50.194;18.948;2022-08-07T00:47:38;102668.15;;;17.49;73.49
24013;BME280;12220;50.194;18.948;2022-08-07T00:49:40;102667.48;;;17.45;73.44
24013;BME280;12220;50.194;18.948;2022-08-07T00:51:41;102673.24;;;17.42;73.41
24013;BME280;12220;50.194;18.948;2022-08-07T00:53:43;102674.33;;;17.39;73.34
24013;BME280;12220;50.194;18.948;2022-08-07T00:55:53;102672.64;;;17.37;73.33
24013;BME280;12220;50.194;18.948;2022-08-07T00:57:55;102671.98;;;17.33;73.33
24013;BME280;12220;50.194;18.948;2022-08-07T00:59:56;102678.52;;;17.32;73.31
24013;BME280;12220;50.194;18.948;2022-08-07T01:01:57;102675.95;;;17.29;73.33
24013;BME280;12220;50.194;18.948;2022-08-07T01:04:08;102668.73;;;17.27;73.32
24013;BME280;12220;50.194;18.948;2022-08-07T01:06:09;102662.54;;;17.23;73.29
24013;BME280;12220;50.194;18.948;2022-08-07T01:08:11;102672.03;;;17.19;73.23
24013;BME280;12220;50.194;18.948;2022-08-07T01:10:13;102670.46;;;17.15;73.22
24013;BME280;12220;50.194;18.948;2022-08-07T01:12:23;102672.57;;;17.11;73.23
24013;BME280;12220;50.194;18.948;2022-08-07T01:14:25;102666.34;;;17.07;73.25
24013;BME280;12220;50.194;18.948;2022-08-07T01:16:27;102664.65;;;17.05;73.26
24013;BME280;12220;50.194;18.948;2022-08-07T01:18:28;102663.00;;;17.02;73.23
24013;BME280;12220;50.194;18.948;2022-08-07T01:20:47;102663.10;;;17.01;73.25
24013;BME280;12220;50.194;18.948;2022-08-07T01:23:00;102661.42;;;16.98;73.20
24013;BME280;12220;50.194;18.948;2022-08-07T01:25:04;102660.83;;;16.93;73.13
24013;BME280;12220;50.194;18.948;2022-08-07T01:27:06;102660.05;;;16.91;73.21
24013;BME280;12220;50.194;18.948;2022-08-07T01:29:08;102662.93;;;16.89;73.24
24013;BME280;12220;50.194;18.948;2022-08-07T01:31:19;102663.91;;;16.88;73.25
24013;BME280;12220;50.194;18.948;2022-08-07T01:33:21;102665.80;;;16.88;73.22
24013;BME280;12220;50.194;18.948;2022-08-07T01:35:23;102673.26;;;16.86;73.17
24013;BME280;12220;50.194;18.948;2022-08-07T01:37:24;102664.08;;;16.85;73.13
24013;BME280;12220;50.194;18.948;2022-08-07T01:39:29;102660.61;;;16.82;73.06
24013;BME280;12220;50.194;18.948;2022-08-07T01:41:31;102664.49;;;16.79;73.00
24013;BME280;12220;50.194;18.948;2022-08-07T01:43:33;102663.69;;;16.77;72.99
24013;BME280;12220;50.194;18.948;2022-08-07T01:45:34;102670.24;;;16.76;72.91
24013;BME280;12220;50.194;18.948;2022-08-07T01:47:44;102655.90;;;16.69;72.90
24013;BME280;12220;50.194;18.948;2022-08-07T01:49:45;102659.85;;;16.65;72.95
24013;BME280;12220;50.194;18.948;2022-08-07T01:51:46;102659.18;;;16.62;72.97
24013;BME280;12220;50.194;18.948;2022-08-07T01:53:54;102662.16;;;16.59;72.98
24013;BME280;12220;50.194;18.948;2022-08-07T01:56:08;102658.68;;;16.55;72.94
24013;BME280;12220;50.194;18.948;2022-08-07T01:58:21;102650.69;;;16.50;72.88
24013;BME280;12220;50.194;18.948;2022-08-07T02:00:26;102649.20;;;16.45;72.86
24013;BME280;12220;50.194;18.948;2022-08-07T02:02:45;102651.10;;;16.44;73.14
24013;BME280;12220;50.194;18.948;2022-08-07T02:04:51;102649.30;;;16.43;73.01
24013;BME280;12220;50.194;18.948;2022-08-07T02:06:56;102654.06;;;16.41;72.99
24013;BME280;12220;50.194;18.948;2022-08-07T02:09:02;102658.89;;;16.37;72.90
24013;BME280;12220;50.194;18.948;2022-08-07T02:11:05;102661.85;;;16.34;72.90
24013;BME280;12220;50.194;18.948;2022-08-07T02:13:08;102655.60;;;16.31;72.90
24013;BME280;12220;50.194;18.948;2022-08-07T02:15:11;102661.34;;;16.28;72.96
24013;BME280;12220;50.194;18.948;2022-08-07T02:17:15;102659.70;;;16.25;72.94
24013;BME280;12220;50.194;18.948;2022-08-07T02:19:16;102664.41;;;16.23;72.98
24013;BME280;12220;50.194;18.948;2022-08-07T02:21:21;102662.71;;;16.20;73.09
24013;BME280;12220;50.194;18.948;2022-08-07T02:23:24;102658.20;;;16.19;73.14
24013;BME280;12220;50.194;18.948;2022-08-07T02:25:28;102653.75;;;16.17;73.04
24013;BME280;12220;50.194;18.948;2022-08-07T02:27:31;102657.58;;;16.14;72.96
24013;BME280;12220;50.194;18.948;2022-08-07T02:29:34;102661.72;;;16.07;72.84
24013;BME280;12220;50.194;18.948;2022-08-07T02:31:39;102669.44;;;16.02;72.90
24013;BME280;12220;50.194;18.948;2022-08-07T02:33:41;102667.13;;;15.94;72.99
24013;BME280;12220;50.194;18.948;2022-08-07T02:35:43;102661.01;;;15.89;73.07
24013;BME280;12220;50.194;18.948;2022-08-07T02:37:47;102664.16;;;15.83;73.22
24013;BME280;12220;50.194;18.948;2022-08-07T02:39:51;102662.56;;;15.79;73.30
24013;BME280;12220;50.194;18.948;2022-08-07T02:41:57;102472.85;;;14.59;73.27
24013;BME280;12220;50.194;18.948;2022-08-07T02:44:04;102660.33;;;15.69;73.50
24013;BME280;12220;50.194;18.948;2022-08-07T02:46:10;102663.28;;;15.66;73.61
24013;BME280;12220;50.194;18.948;2022-08-07T02:48:12;102659.73;;;15.64;73.78
24013;BME280;12220;50.194;18.948;2022-08-07T02:50:13;102660.70;;;15.63;73.79
24013;BME280;12220;50.194;18.948;2022-08-07T02:52:20;102659.91;;;15.61;73.79
24013;BME280;12220;50.194;18.948;2022-08-07T02:54:24;102662.78;;;15.60;73.74
24013;BME280;12220;50.194;18.948;2022-08-07T02:56:30;102668.49;;;15.57;73.81
24013;BME280;12220;50.194;18.948;2022-08-07T02:58:34;102667.67;;;15.55;73.86
24013;BME280;12220;50.194;18.948;2022-08-07T03:00:38;102665.88;;;15.54;73.81
24013;BME280;12220;50.194;18.948;2022-08-07T03:02:43;102675.27;;;15.51;73.83
24013;BME280;12220;50.194;18.948;2022-08-07T03:04:45;102669.85;;;15.49;73.77
24013;BME280;12220;50.194;18.948;2022-08-07T03:06:49;102671.01;;;15.45;73.69
24013;BME280;12220;50.194;18.948;2022-08-07T03:08:51;102659.24;;;15.42;73.76
24013;BME280;12220;50.194;18.948;2022-08-07T03:10:54;102659.52;;;15.37;73.81
24013;BME280;12220;50.194;18.948;2022-08-07T03:12:55;102656.08;;;15.33;73.89
24013;BME280;12220;50.194;18.948;2022-08-07T03:15:00;102660.96;;;15.28;73.81
24013;BME280;12220;50.194;18.948;2022-08-07T03:17:02;102663.04;;;15.25;73.93
24013;BME280;12220;50.194;18.948;2022-08-07T03:19:04;102656.79;;;15.21;74.12
24013;BME280;12220;50.194;18.948;2022-08-07T03:21:06;102663.28;;;15.20;74.19
24013;BME280;12220;50.194;18.948;2022-08-07T03:23:15;102667.14;;;15.18;74.22
24013;BME280;12220;50.194;18.948;2022-08-07T03:25:18;102668.20;;;15.15;74.33
24013;BME280;12220;50.194;18.948;2022-08-07T03:27:20;102668.29;;;15.13;74.32
24013;BME280;12220;50.194;18.948;2022-08-07T03:29:23;102662.05;;;15.10;74.26
24013;BME280;12220;50.194;18.948;2022-08-07T03:31:31;102660.48;;;15.06;74.19
24013;BME280;12220;50.194;18.948;2022-08-07T03:33:33;102659.84;;;15.01;74.25
24013;BME280;12220;50.194;18.948;2022-08-07T03:35:38;102660.98;;;14.96;74.37
24013;BME280;12220;50.194;18.948;2022-08-07T03:37:42;102664.80;;;14.94;74.51
24013;BME280;12220;50.194;18.948;2022-08-07T03:39:45;102663.05;;;14.93;74.66
24013;BME280;12220;50.194;18.948;2022-08-07T03:41:47;102664.91;;;14.92;74.75
24013;BME280;12220;50.194;18.948;2022-08-07T03:43:49;102663.93;;;14.93;74.71
24013;BME280;12220;50.194;18.948;2022-08-07T03:45:50;102667.65;;;14.92;74.65
24013;BME280;12220;50.194;18.948;2022-08-07T03:48:00;102674.18;;;14.91;74.74
24013;BME280;12220;50.194;18.948;2022-08-07T03:50:02;102669.53;;;14.92;74.86
24013;BME280;12220;50.194;18.948;2022-08-07T03:52:07;102674.96;;;14.93;74.99
24013;BME280;12220;50.194;18.948;2022-08-07T03:54:09;102680.40;;;14.95;75.08
24013;BME280;12220;50.194;18.948;2022-08-07T03:56:18;102668.30;;;14.97;74.99
24013;BME280;12220;50.194;18.948;2022-08-07T03:58:21;102669.08;;;14.99;75.01
24013;BME280;12220;50.194;18.948;2022-08-07T04:00:23;102675.43;;;15.02;75.09
24013;BME280;12220;50.194;18.948;2022-08-07T04:02:25;102667.93;;;15.04;75.15
24013;BME280;12220;50.194;18.948;2022-08-07T04:04:29;102666.05;;;15.04;75.16
24013;BME280;12220;50.194;18.948;2022-08-07T04:06:32;102672.48;;;15.05;75.28
24013;BME280;12220;50.194;18.948;2022-08-07T04:08:35;102360.23;;;13.25;75.27
24013;BME280;12220;50.194;18.948;2022-08-07T04:10:40;102669.45;;;15.09;75.55
24013;BME280;12220;50.194;18.948;2022-08-07T04:12:45;102676.66;;;15.12;75.59
24013;BME280;12220;50.194;18.948;2022-08-07T04:14:47;102674.59;;;15.15;75.66
24013;BME280;12220;50.194;18.948;2022-08-07T04:16:49;102675.32;;;15.19;75.66
24013;BME280;12220;50.194;18.948;2022-08-07T04:18:50;102670.40;;;15.24;75.70
24013;BME280;12220;50.194;18.948;2022-08-07T04:20:59;102674.67;;;15.30;75.75
24013;BME280;12220;50.194;18.948;2022-08-07T04:23:03;102680.01;;;15.33;75.76
24013;BME280;12220;50.194;18.948;2022-08-07T04:25:06;102685.34;;;15.36;75.83
24013;BME280;12220;50.194;18.948;2022-08-07T04:27:08;102687.94;;;15.39;75.92
24013;BME280;12220;50.194;18.948;2022-08-07T04:29:14;102685.00;;;15.42;75.95
24013;BME280;12220;50.194;18.948;2022-08-07T04:31:15;102682.92;;;15.46;76.06
24013;BME280;12220;50.194;18.948;2022-08-07T04:33:17;102699.29;;;15.49;76.16
24013;BME280;12220;50.194;18.948;2022-08-07T04:35:24;102696.27;;;15.54;76.18
24013;BME280;12220;50.194;18.948;2022-08-07T04:37:30;102705.36;;;15.56;76.19
24013;BME280;12220;50.194;18.948;2022-08-07T04:39:32;102701.63;;;15.57;76.20
24013;BME280;12220;50.194;18.948;2022-08-07T04:41:33;102704.30;;;15.58;76.27
24013;BME280;12220;50.194;18.948;2022-08-07T04:43:37;102705.95;;;15.61;76.38
24013;BME280;12220;50.194;18.948;2022-08-07T04:45:54;102699.56;;;15.60;76.40
24013;BME280;12220;50.194;18.948;2022-08-07T04:48:11;102704.88;;;15.63;76.54
24013;BME280;12220;50.194;18.948;2022-08-07T04:52:40;102691.81;;;15.67;76.74
24013;BME280;12220;50.194;18.948;2022-08-07T04:57:04;102693.27;;;15.73;76.78
24013;BME280;12220;50.194;18.948;2022-08-07T04:59:15;102697.63;;;15.77;76.81
24013;BME280;12220;50.194;18.948;2022-08-07T05:01:45;102698.48;;;15.79;76.78
24013;BME280;12220;50.194;18.948;2022-08-07T05:03:48;102703.81;;;15.82;76.82
24013;BME280;12220;50.194;18.948;2022-08-07T05:10:51;102707.88;;;15.91;76.91
24013;BME280;12220;50.194;18.948;2022-08-07T05:15:35;102713.83;;;15.99;77.14
24013;BME280;12220;50.194;18.948;2022-08-07T05:17:48;102712.73;;;16.01;77.29
24013;BME280;12220;50.194;18.948;2022-08-07T05:19:53;102715.30;;;16.04;77.46
24013;BME280;12220;50.194;18.948;2022-08-07T05:21:58;102723.42;;;16.08;77.82
24013;BME280;12220;50.194;18.948;2022-08-07T05:24:02;102714.04;;;16.10;77.86
24013;BME280;12220;50.194;18.948;2022-08-07T05:26:10;102716.50;;;16.15;77.92
24013;BME280;12220;50.194;18.948;2022-08-07T05:28:23;102718.10;;;16.19;78.01
24013;BME280;12220;50.194;18.948;2022-08-07T05:30:27;102708.73;;;16.21;78.19
24013;BME280;12220;50.194;18.948;2022-08-07T05:32:30;102713.97;;;16.26;78.32
24013;BME280;12220;50.194;18.948;2022-08-07T05:34:34;102716.34;;;16.32;78.43
24013;BME280;12220;50.194;18.948;2022-08-07T05:36:40;102714.19;;;16.37;78.54
24013;BME280;12220;50.194;18.948;2022-08-07T05:38:42;102715.67;;;16.43;78.72
24013;BME280;12220;50.194;18.948;2022-08-07T05:40:44;102718.03;;;16.49;78.79
24013;BME280;12220;50.194;18.948;2022-08-07T05:42:46;102713.02;;;16.56;78.87
24013;BME280;12220;50.194;18.948;2022-08-07T05:44:53;102724.56;;;16.63;78.99
24013;BME280;12220;50.194;18.948;2022-08-07T05:46:55;102763.76;;;16.41;79.11
24013;BME280;12220;50.194;18.948;2022-08-07T05:48:58;102719.12;;;16.76;79.20
24013;BME280;12220;50.194;18.948;2022-08-07T05:51:00;102715.95;;;16.82;79.18
24013;BME280;12220;50.194;18.948;2022-08-07T05:53:07;102726.47;;;16.91;79.13
24013;BME280;12220;50.194;18.948;2022-08-07T05:55:08;102722.41;;;16.97;79.39
24013;BME280;12220;50.194;18.948;2022-08-07T05:57:11;102719.23;;;17.03;79.46
24013;BME280;12220;50.194;18.948;2022-08-07T05:59:15;102720.70;;;17.08;79.37
24013;BME280;12220;50.194;18.948;2022-08-07T06:01:23;102725.82;;;17.15;79.29
24013;BME280;12220;50.194;18.948;2022-08-07T06:03:26;102721.77;;;17.20;79.24
24013;BME280;12220;50.194;18.948;2022-08-07T06:05:29;102726.88;;;17.27;79.14
24013;BME280;12220;50.194;18.948;2022-08-07T06:07:32;102719.05;;;17.33;79.05
24013;BME280;12220;50.194;18.948;2022-08-07T06:09:38;102719.52;;;17.40;78.98
24013;BME280;12220;50.194;18.948;2022-08-07T06:11:40;102723.76;;;17.46;78.93
24013;BME280;12220;50.194;18.948;2022-08-07T06:13:42;102727.11;;;17.51;78.91
24013;BME280;12220;50.194;18.948;2022-08-07T06:17:56;102725.27;;;17.64;78.67
24013;BME280;12220;50.194;18.948;2022-08-07T06:20:00;102723.17;;;17.68;78.66
24013;BME280;12220;50.194;18.948;2022-08-07T06:22:02;102731.96;;;17.74;78.52
24013;BME280;12220;50.194;18.948;2022-08-07T06:24:04;102717.66;;;17.81;78.43
24013;BME280;12220;50.194;18.948;2022-08-07T06:26:10;102723.79;;;17.86;78.32
24013;BME280;12220;50.194;18.948;2022-08-07T06:28:13;102719.85;;;17.90;78.21
24013;BME280;12220;50.194;18.948;2022-08-07T06:30:14;102724.20;;;17.94;78.11
24013;BME280;12220;50.194;18.948;2022-08-07T06:32:15;102717.30;;;18.00;77.94
24013;BME280;12220;50.194;18.948;2022-08-07T06:34:25;102720.66;;;18.05;77.88
24013;BME280;12220;50.194;18.948;2022-08-07T06:36:27;102718.53;;;18.08;77.72
24013;BME280;12220;50.194;18.948;2022-08-07T06:38:29;102719.10;;;18.14;77.48
24013;BME280;12220;50.194;18.948;2022-08-07T06:40:39;102722.42;;;18.19;77.30
24013;BME280;12220;50.194;18.948;2022-08-07T06:42:45;102722.01;;;18.25;77.24
24013;BME280;12220;50.194;18.948;2022-08-07T06:44:58;102722.44;;;18.32;77.12
24013;BME280;12220;50.194;18.948;2022-08-07T06:47:01;102721.11;;;18.37;77.02
24013;BME280;12220;50.194;18.948;2022-08-07T06:49:03;102724.35;;;18.44;76.80
24013;BME280;12220;50.194;18.948;2022-08-07T06:51:07;102727.55;;;18.51;76.51
24013;BME280;12220;50.194;18.948;2022-08-07T06:53:13;102722.45;;;18.57;76.31
24013;BME280;12220;50.194;18.948;2022-08-07T06:55:20;102729.45;;;18.63;76.08
24013;BME280;12220;50.194;18.948;2022-08-07T06:57:23;102720.55;;;18.71;75.80
24013;BME280;12220;50.194;18.948;2022-08-07T06:59:31;102557.96;;;17.80;75.57
24013;BME280;12220;50.194;18.948;2022-08-07T07:01:33;102726.08;;;18.84;75.51
24013;BME280;12220;50.194;18.948;2022-08-07T07:03:38;102731.21;;;18.90;75.42
24013;BME280;12220;50.194;18.948;2022-08-07T07:05:41;102732.64;;;18.95;75.14
24013;BME280;12220;50.194;18.948;2022-08-07T07:07:44;102726.63;;;19.02;74.82
24013;BME280;12220;50.194;18.948;2022-08-07T07:09:48;102726.20;;;19.08;74.65
24013;BME280;12220;50.194;18.948;2022-08-07T07:14:03;102726.05;;;19.22;74.40
24013;BME280;12220;50.194;18.948;2022-08-07T07:16:11;102727.23;;;19.31;74.05
24013;BME280;12220;50.194;18.948;2022-08-07T07:19:05;102732.31;;;19.37;73.77
24013;BME280;12220;50.194;18.948;2022-08-07T07:20:35;102725.17;;;19.46;73.33
24013;BME280;12220;50.194;18.948;2022-08-07T07:22:38;102732.27;;;19.50;73.11
24013;BME280;12220;50.194;18.948;2022-08-07T07:24:41;102731.91;;;19.55;73.07
24013;BME280;12220;50.194;18.948;2022-08-07T07:26:45;102728.89;;;19.58;72.96
24013;BME280;12220;50.194;18.948;2022-08-07T07:28:53;102734.96;;;19.63;72.73
24013;BME280;12220;50.194;18.948;2022-08-07T07:31:18;102738.30;;;19.68;72.58
24013;BME280;12220;50.194;18.948;2022-08-07T07:33:31;102731.38;;;19.74;72.45
24013;BME280;12220;50.194;18.948;2022-08-07T07:35:34;102719.01;;;19.78;72.38
24013;BME280;12220;50.194;18.948;2022-08-07T07:37:38;102725.00;;;19.84;72.37
24013;BME280;12220;50.194;18.948;2022-08-07T07:39:43;102731.09;;;19.90;72.14
24013;BME280;12220;50.194;18.948;2022-08-07T07:41:49;102735.41;;;19.94;72.03
24013;BME280;12220;50.194;18.948;2022-08-07T07:43:52;102726.95;;;19.95;72.00
24013;BME280;12220;50.194;18.948;2022-08-07T07:45:54;102720.23;;;19.98;71.82
24013;BME280;12220;50.194;18.948;2022-08-07T07:47:56;102719.23;;;19.99;71.58
24013;BME280;12220;50.194;18.948;2022-08-07T07:49:59;102721.77;;;20.02;71.38
24013;BME280;12220;50.194;18.948;2022-08-07T07:52:02;102037.82;;;15.59;70.78
24013;BME280;12220;50.194;18.948;2022-08-07T07:54:06;102715.33;;;20.01;71.09
24013;BME280;12220;50.194;18.948;2022-08-07T07:56:09;102722.67;;;20.02;71.09
24013;BME280;12220;50.194;18.948;2022-08-07T07:58:14;102720.52;;;20.06;71.19
24013;BME280;12220;50.194;18.948;2022-08-07T08:00:17;102719.40;;;20.09;71.02
24013;BME280;12220;50.194;18.948;2022-08-07T08:02:25;102721.92;;;20.12;70.93
24013;BME280;12220;50.194;18.948;2022-08-07T08:04:28;102720.02;;;20.12;70.80
24013;BME280;12220;50.194;18.948;2022-08-07T08:06:31;102712.46;;;20.14;70.79
24013;BME280;12220;50.194;18.948;2022-08-07T08:08:36;102719.68;;;20.17;70.79
24013;BME280;12220;50.194;18.948;2022-08-07T08:10:40;102719.55;;;20.18;70.61
24013;BME280;12220;50.194;18.948;2022-08-07T08:12:44;102729.41;;;20.23;70.49
24013;BME280;12220;50.194;18.948;2022-08-07T08:14:46;102722.96;;;20.22;70.41
24013;BME280;12220;50.194;18.948;2022-08-07T08:16:51;102727.52;;;20.23;70.33
24013;BME280;12220;50.194;18.948;2022-08-07T08:18:54;102727.41;;;20.25;70.24
24013;BME280;12220;50.194;18.948;2022-08-07T08:21:01;102728.27;;;20.25;69.91
24013;BME280;12220;50.194;18.948;2022-08-07T08:23:09;102734.98;;;20.23;69.64
24013;BME280;12220;50.194;18.948;2022-08-07T08:25:24;102728.65;;;20.20;69.71
24013;BME280;12220;50.194;18.948;2022-08-07T08:27:49;102730.56;;;20.20;69.70
24013;BME280;12220;50.194;18.948;2022-08-07T08:30:06;102733.35;;;20.20;69.74
24013;BME280;12220;50.194;18.948;2022-08-07T08:32:09;102734.98;;;20.23;69.78
24013;BME280;12220;50.194;18.948;2022-08-07T08:34:18;102730.19;;;20.25;69.73
24013;BME280;12220;50.194;18.948;2022-08-07T08:36:25;102726.41;;;20.26;69.65
24013;BME280;12220;50.194;18.948;2022-08-07T08:38:36;102733.72;;;20.27;69.64
24013;BME280;12220;50.194;18.948;2022-08-07T08:40:43;102728.95;;;20.29;69.63
24013;BME280;12220;50.194;18.948;2022-08-07T08:49:32;102726.16;;;20.29;69.94
24013;BME280;12220;50.194;18.948;2022-08-07T08:51:41;102731.85;;;20.27;69.80
24013;BME280;12220;50.194;18.948;2022-08-07T08:56:23;102737.54;;;20.26;69.89
24013;BME280;12220;50.194;18.948;2022-08-07T08:58:35;102744.98;;;20.25;69.90
24013;BME280;12220;50.194;18.948;2022-08-07T09:01:02;102744.10;;;20.25;69.90
24013;BME280;12220;50.194;18.948;2022-08-07T09:02:59;102734.89;;;20.24;69.79
24013;BME280;12220;50.194;18.948;2022-08-07T09:07:27;102739.66;;;20.22;69.75
24013;BME280;12220;50.194;18.948;2022-08-07T09:09:34;102741.45;;;20.23;69.72
24013;BME280;12220;50.194;18.948;2022-08-07T09:12:03;102738.30;;;20.28;69.67
24013;BME280;12220;50.194;18.948;2022-08-07T09:14:14;102736.50;;;20.27;69.53
24013;BME280;12220;50.194;18.948;2022-08-07T09:20:56;102737.41;;;20.27;68.99
24013;BME280;12220;50.194;18.948;2022-08-07T09:25:13;102728.15;;;20.27;68.54
24013;BME280;12220;50.194;18.948;2022-08-07T09:27:29;102727.16;;;20.28;68.30
24013;BME280;12220;50.194;18.948;2022-08-07T09:32:16;102723.38;;;20.29;68.10
24013;BME280;12220;50.194;18.948;2022-08-07T09:34:28;102719.55;;;20.30;67.96
24013;BME280;12220;50.194;18.948;2022-08-07T09:36:41;102725.91;;;20.32;68.04
24013;BME280;12220;50.194;18.948;2022-08-07T09:41:12;102725.52;;;20.36;67.65
24013;BME280;12220;50.194;18.948;2022-08-07T09:50:07;102542.04;;;19.43;67.52
24013;BME280;12220;50.194;18.948;2022-08-07T09:54:40;102716.45;;;20.57;67.45
24013;BME280;12220;50.194;18.948;2022-08-07T10:12:39;102708.27;;;20.78;65.95
24013;BME280;12220;50.194;18.948;2022-08-07T10:29:46;102683.55;;;21.19;63.72
24013;BME280;12220;50.194;18.948;2022-08-07T10:41:01;102671.44;;;21.41;61.02
24013;BME280;12220;50.194;18.948;2022-08-07T10:43:18;102669.25;;;21.45;61.08
24013;BME280;12220;50.194;18.948;2022-08-07T10:52:11;102657.51;;;21.73;59.80
24013;BME280;12220;50.194;18.948;2022-08-07T10:54:29;102658.88;;;21.79;59.60
24013;BME280;12220;50.194;18.948;2022-08-07T10:56:39;102657.31;;;21.86;59.69
24013;BME280;12220;50.194;18.948;2022-08-07T10:58:56;102656.77;;;21.92;59.28
24013;BME280;12220;50.194;18.948;2022-08-07T11:05:47;102648.94;;;22.07;58.91
24013;BME280;12220;50.194;18.948;2022-08-07T11:08:01;102641.92;;;22.13;58.91
24013;BME280;12220;50.194;18.948;2022-08-07T11:14:36;102637.09;;;22.36;57.72
24013;BME280;12220;50.194;18.948;2022-08-07T11:19:08;102626.71;;;22.48;56.94
24013;BME280;12220;50.194;18.948;2022-08-07T11:21:23;102628.67;;;22.57;57.45
24013;BME280;12220;50.194;18.948;2022-08-07T11:28:29;102633.02;;;22.81;55.61
24013;BME280;12220;50.194;18.948;2022-08-07T11:30:48;102619.77;;;22.83;55.03
24013;BME280;12220;50.194;18.948;2022-08-07T11:35:33;102619.38;;;22.97;54.70
24013;BME280;12220;50.194;18.948;2022-08-07T12:01:23;102610.90;;;23.77;52.66
24013;BME280;12220;50.194;18.948;2022-08-07T12:03:47;102605.16;;;23.79;52.37
24013;BME280;12220;50.194;18.948;2022-08-07T12:08:28;102610.90;;;23.77;52.26
24013;BME280;12220;50.194;18.948;2022-08-07T12:13:05;102597.07;;;23.66;50.86
24013;BME280;12220;50.194;18.948;2022-08-07T12:15:14;102599.61;;;23.59;51.19
24013;BME280;12220;50.194;18.948;2022-08-07T12:17:18;102601.80;;;23.56;51.40
24013;BME280;12220;50.194;18.948;2022-08-07T12:19:35;102599.29;;;23.53;51.38
24013;BME280;12220;50.194;18.948;2022-08-07T12:23:59;102591.21;;;23.49;51.84
24013;BME280;12220;50.194;18.948;2022-08-07T12:28:39;102594.88;;;23.50;52.13
24013;BME280;12220;50.194;18.948;2022-08-07T12:30:52;102591.64;;;23.55;52.09
24013;BME280;12220;50.194;18.948;2022-08-07T12:33:03;102588.69;;;23.66;52.04
24013;BME280;12220;50.194;18.948;2022-08-07T12:35:09;102574.83;;;23.84;52.15
24013;BME280;12220;50.194;18.948;2022-08-07T12:37:12;102575.67;;;24.04;52.14
24013;BME280;12220;50.194;18.948;2022-08-07T12:39:15;102589.47;;;24.25;51.95
24013;BME280;12220;50.194;18.948;2022-08-07T12:41:19;102580.97;;;24.45;51.48
24013;BME280;12220;50.194;18.948;2022-08-07T12:43:26;102581.95;;;24.63;50.87
24013;BME280;12220;50.194;18.948;2022-08-07T12:45:36;102575.50;;;24.81;50.31
24013;BME280;12220;50.194;18.948;2022-08-07T12:50:05;102568.97;;;25.08;49.86
24013;BME280;12220;50.194;18.948;2022-08-07T12:52:14;102570.80;;;25.17;49.69
24013;BME280;12220;50.194;18.948;2022-08-07T12:56:33;102558.64;;;25.27;48.63
24013;BME280;12220;50.194;18.948;2022-08-07T12:58:37;102555.93;;;25.35;48.54
24013;BME280;12220;50.194;18.948;2022-08-07T13:21:59;102540.39;;;26.11;45.24
24013;BME280;12220;50.194;18.948;2022-08-07T13:24:19;102539.55;;;26.19;45.66
24013;BME280;12220;50.194;18.948;2022-08-07T13:26:39;102540.09;;;26.22;45.21
24013;BME280;12220;50.194;18.948;2022-08-07T13:35:59;102533.92;;;25.92;45.34
24013;BME280;12220;50.194;18.948;2022-08-07T13:42:34;102539.38;;;25.68;46.17
24013;BME280;12220;50.194;18.948;2022-08-07T13:44:37;102528.32;;;25.66;46.13
24013;BME280;12220;50.194;18.948;2022-08-07T13:46:45;102533.36;;;25.63;45.75
24013;BME280;12220;50.194;18.948;2022-08-07T13:48:52;102533.69;;;25.60;45.94
24013;BME280;12220;50.194;18.948;2022-08-07T13:50:57;102521.61;;;25.59;46.08
24013;BME280;12220;50.194;18.948;2022-08-07T13:53:03;102523.05;;;25.63;45.95
24013;BME280;12220;50.194;18.948;2022-08-07T13:55:09;102511.85;;;25.71;45.74